Current Weather

Half Moon Bay

Half Moon Bay, California (KHAF)

Report from: Sunday, June 26, 2022 9:35 AM PDT
Current time: Sunday, June 26, 2022 9:56 AM PDT

Nearby weather
Weather history
Weather forecast

Present weatherMist
Temperature12.0°C (53.6°F)
Dew point12.0°C (53.6°F)
Winds 4 kts (2.1 m/s, 4.6 mph) Southwest (220°)
Visibility2.5 mi. (4 km)
Clouds Ceiling: Overcast 300 ft. (91 m)
Altimeter30.06 in.Hg (1018 mB)
Relative humidity100 %
Density altitude-320 ft. (-98 m)
Remarks Fully automated report
Automated weather observing station with precipitation discriminator
Flight conditions Low Instrument Meteorological Conditions
Raw dataKHAF 261635Z AUTO 22004KT 2 1/2SM BR OVC003 12/12 A3006 RMK AO2
An error has occurred. This application may no longer respond until reloaded. Reload 🗙